sensor_id;sensor_type;location;lat;lon;timestamp;P1;durP1;ratioP1;P2;durP2;ratioP2
23995;SDS011;12207;50.076;8.848;2022-07-12T00:01:40;119.45;;;5.93;;
23995;SDS011;12207;50.076;8.848;2022-07-12T00:04:07;134.30;;;6.72;;
23995;SDS011;12207;50.076;8.848;2022-07-12T00:06:33;120.57;;;5.93;;
23995;SDS011;12207;50.076;8.848;2022-07-12T00:09:00;149.57;;;7.45;;
23995;SDS011;12207;50.076;8.848;2022-07-12T00:11:27;130.63;;;6.55;;
23995;SDS011;12207;50.076;8.848;2022-07-12T00:13:54;131.00;;;6.57;;
23995;SDS011;12207;50.076;8.848;2022-07-12T00:16:20;138.23;;;6.88;;
23995;SDS011;12207;50.076;8.848;2022-07-12T00:18:48;147.38;;;7.25;;
23995;SDS011;12207;50.076;8.848;2022-07-12T00:21:15;123.15;;;6.15;;
23995;SDS011;12207;50.076;8.848;2022-07-12T00:23:41;155.35;;;7.82;;
23995;SDS011;12207;50.076;8.848;2022-07-12T00:26:08;126.88;;;6.35;;
23995;SDS011;12207;50.076;8.848;2022-07-12T00:28:35;145.27;;;7.03;;
23995;SDS011;12207;50.076;8.848;2022-07-12T00:31:02;139.50;;;7.03;;
23995;SDS011;12207;50.076;8.848;2022-07-12T00:33:29;112.18;;;5.55;;
23995;SDS011;12207;50.076;8.848;2022-07-12T00:35:55;135.85;;;6.82;;
23995;SDS011;12207;50.076;8.848;2022-07-12T00:38:22;152.40;;;7.57;;
23995;SDS011;12207;50.076;8.848;2022-07-12T00:40:49;142.77;;;7.00;;
23995;SDS011;12207;50.076;8.848;2022-07-12T00:43:16;123.43;;;6.15;;
23995;SDS011;12207;50.076;8.848;2022-07-12T00:45:42;165.77;;;8.25;;
23995;SDS011;12207;50.076;8.848;2022-07-12T00:48:09;145.20;;;7.15;;
23995;SDS011;12207;50.076;8.848;2022-07-12T00:50:37;184.25;;;9.50;;
23995;SDS011;12207;50.076;8.848;2022-07-12T00:53:03;140.98;;;6.97;;
23995;SDS011;12207;50.076;8.848;2022-07-12T00:55:30;101.35;;;5.05;;
23995;SDS011;12207;50.076;8.848;2022-07-12T00:57:57;121.53;;;5.90;;
23995;SDS011;12207;50.076;8.848;2022-07-12T01:00:25;154.98;;;7.78;;
23995;SDS011;12207;50.076;8.848;2022-07-12T01:02:54;123.80;;;6.07;;
23995;SDS011;12207;50.076;8.848;2022-07-12T01:05:22;145.07;;;7.10;;
23995;SDS011;12207;50.076;8.848;2022-07-12T01:07:49;154.93;;;7.68;;
23995;SDS011;12207;50.076;8.848;2022-07-12T01:10:16;131.07;;;6.47;;
23995;SDS011;12207;50.076;8.848;2022-07-12T01:12:42;133.60;;;6.72;;
23995;SDS011;12207;50.076;8.848;2022-07-12T01:15:10;152.45;;;7.63;;
23995;SDS011;12207;50.076;8.848;2022-07-12T01:17:37;120.28;;;5.93;;
23995;SDS011;12207;50.076;8.848;2022-07-12T01:20:05;127.72;;;6.32;;
23995;SDS011;12207;50.076;8.848;2022-07-12T01:22:34;167.23;;;8.13;;
23995;SDS011;12207;50.076;8.848;2022-07-12T01:25:06;129.98;;;6.40;;
23995;SDS011;12207;50.076;8.848;2022-07-12T01:27:33;117.07;;;5.70;;
23995;SDS011;12207;50.076;8.848;2022-07-12T01:30:03;127.60;;;6.28;;
23995;SDS011;12207;50.076;8.848;2022-07-12T01:32:30;148.55;;;7.32;;
23995;SDS011;12207;50.076;8.848;2022-07-12T01:34:59;115.78;;;5.65;;
23995;SDS011;12207;50.076;8.848;2022-07-12T01:37:30;153.55;;;7.43;;
23995;SDS011;12207;50.076;8.848;2022-07-12T01:40:05;113.97;;;5.55;;
23995;SDS011;12207;50.076;8.848;2022-07-12T01:42:34;158.95;;;7.70;;
23995;SDS011;12207;50.076;8.848;2022-07-12T01:45:02;138.85;;;6.75;;
23995;SDS011;12207;50.076;8.848;2022-07-12T01:47:30;120.82;;;5.85;;
23995;SDS011;12207;50.076;8.848;2022-07-12T01:49:57;85.28;;;4.10;;
23995;SDS011;12207;50.076;8.848;2022-07-12T01:52:25;135.98;;;6.72;;
23995;SDS011;12207;50.076;8.848;2022-07-12T01:54:53;122.63;;;5.80;;
23995;SDS011;12207;50.076;8.848;2022-07-12T01:57:20;140.30;;;7.03;;
23995;SDS011;12207;50.076;8.848;2022-07-12T01:59:47;153.95;;;7.57;;
23995;SDS011;12207;50.076;8.848;2022-07-12T02:02:14;134.23;;;6.57;;
23995;SDS011;12207;50.076;8.848;2022-07-12T02:04:41;134.82;;;6.47;;
23995;SDS011;12207;50.076;8.848;2022-07-12T02:07:08;138.43;;;6.72;;
23995;SDS011;12207;50.076;8.848;2022-07-12T02:09:34;99.57;;;4.93;;
23995;SDS011;12207;50.076;8.848;2022-07-12T02:12:01;146.60;;;7.22;;
23995;SDS011;12207;50.076;8.848;2022-07-12T02:14:28;140.93;;;6.78;;
23995;SDS011;12207;50.076;8.848;2022-07-12T02:16:55;114.13;;;5.55;;
23995;SDS011;12207;50.076;8.848;2022-07-12T02:19:22;119.75;;;5.70;;
23995;SDS011;12207;50.076;8.848;2022-07-12T02:21:49;139.27;;;6.75;;
23995;SDS011;12207;50.076;8.848;2022-07-12T02:24:15;155.07;;;7.50;;
23995;SDS011;12207;50.076;8.848;2022-07-12T02:26:42;114.55;;;5.53;;
23995;SDS011;12207;50.076;8.848;2022-07-12T02:29:09;116.70;;;5.60;;
23995;SDS011;12207;50.076;8.848;2022-07-12T02:31:36;155.55;;;7.55;;
23995;SDS011;12207;50.076;8.848;2022-07-12T02:34:03;128.32;;;6.30;;
23995;SDS011;12207;50.076;8.848;2022-07-12T02:36:30;129.48;;;6.18;;
23995;SDS011;12207;50.076;8.848;2022-07-12T02:38:57;143.30;;;6.93;;
23995;SDS011;12207;50.076;8.848;2022-07-12T02:41:28;141.63;;;6.82;;
23995;SDS011;12207;50.076;8.848;2022-07-12T02:43:59;169.77;;;8.25;;
23995;SDS011;12207;50.076;8.848;2022-07-12T02:46:26;147.98;;;7.15;;
23995;SDS011;12207;50.076;8.848;2022-07-12T02:48:52;135.45;;;6.55;;
23995;SDS011;12207;50.076;8.848;2022-07-12T02:51:19;148.63;;;7.25;;
23995;SDS011;12207;50.076;8.848;2022-07-12T02:53:46;135.52;;;6.53;;
23995;SDS011;12207;50.076;8.848;2022-07-12T02:56:13;140.00;;;6.75;;
23995;SDS011;12207;50.076;8.848;2022-07-12T02:58:39;132.00;;;6.38;;
23995;SDS011;12207;50.076;8.848;2022-07-12T03:01:06;142.77;;;6.88;;
23995;SDS011;12207;50.076;8.848;2022-07-12T03:03:33;156.25;;;7.80;;
23995;SDS011;12207;50.076;8.848;2022-07-12T03:06:00;122.80;;;5.95;;
23995;SDS011;12207;50.076;8.848;2022-07-12T03:08:27;119.45;;;5.75;;
23995;SDS011;12207;50.076;8.848;2022-07-12T03:10:53;141.05;;;6.68;;
23995;SDS011;12207;50.076;8.848;2022-07-12T03:13:20;149.35;;;7.30;;
23995;SDS011;12207;50.076;8.848;2022-07-12T03:15:47;156.77;;;7.68;;
23995;SDS011;12207;50.076;8.848;2022-07-12T03:18:15;128.85;;;6.25;;
23995;SDS011;12207;50.076;8.848;2022-07-12T03:20:43;191.00;;;9.40;;
23995;SDS011;12207;50.076;8.848;2022-07-12T03:23:09;162.45;;;7.72;;
23995;SDS011;12207;50.076;8.848;2022-07-12T03:25:36;122.30;;;5.75;;
23995;SDS011;12207;50.076;8.848;2022-07-12T03:28:03;192.73;;;9.38;;
23995;SDS011;12207;50.076;8.848;2022-07-12T03:30:30;240.00;;;12.07;;
23995;SDS011;12207;50.076;8.848;2022-07-12T03:32:56;154.65;;;7.38;;
23995;SDS011;12207;50.076;8.848;2022-07-12T03:35:23;244.85;;;11.70;;
23995;SDS011;12207;50.076;8.848;2022-07-12T03:37:50;205.10;;;9.88;;
23995;SDS011;12207;50.076;8.848;2022-07-12T03:40:18;204.18;;;9.93;;
23995;SDS011;12207;50.076;8.848;2022-07-12T03:42:46;215.70;;;10.65;;
23995;SDS011;12207;50.076;8.848;2022-07-12T03:45:14;232.77;;;11.38;;
23995;SDS011;12207;50.076;8.848;2022-07-12T03:47:41;245.50;;;11.75;;
23995;SDS011;12207;50.076;8.848;2022-07-12T03:50:09;270.55;;;13.18;;
23995;SDS011;12207;50.076;8.848;2022-07-12T03:52:37;269.25;;;13.25;;
23995;SDS011;12207;50.076;8.848;2022-07-12T03:55:05;248.02;;;12.10;;
23995;SDS011;12207;50.076;8.848;2022-07-12T03:57:33;282.63;;;13.77;;
23995;SDS011;12207;50.076;8.848;2022-07-12T04:00:00;287.33;;;14.05;;
23995;SDS011;12207;50.076;8.848;2022-07-12T04:02:27;256.42;;;12.68;;
23995;SDS011;12207;50.076;8.848;2022-07-12T04:04:54;226.30;;;11.10;;
23995;SDS011;12207;50.076;8.848;2022-07-12T04:07:21;332.30;;;16.08;;
23995;SDS011;12207;50.076;8.848;2022-07-12T04:09:47;250.30;;;12.20;;
23995;SDS011;12207;50.076;8.848;2022-07-12T04:12:14;221.27;;;11.00;;
23995;SDS011;12207;50.076;8.848;2022-07-12T04:14:41;265.85;;;14.00;;
23995;SDS011;12207;50.076;8.848;2022-07-12T04:17:08;356.63;;;19.02;;
23995;SDS011;12207;50.076;8.848;2022-07-12T04:19:34;292.65;;;16.52;;
23995;SDS011;12207;50.076;8.848;2022-07-12T04:22:02;291.75;;;18.80;;
23995;SDS011;12207;50.076;8.848;2022-07-12T04:24:29;264.17;;;19.30;;
23995;SDS011;12207;50.076;8.848;2022-07-12T04:26:55;256.70;;;22.02;;
23995;SDS011;12207;50.076;8.848;2022-07-12T04:29:22;275.75;;;27.23;;
23995;SDS011;12207;50.076;8.848;2022-07-12T04:31:49;253.30;;;28.70;;
23995;SDS011;12207;50.076;8.848;2022-07-12T04:34:16;259.27;;;33.40;;
23995;SDS011;12207;50.076;8.848;2022-07-12T04:36:46;265.88;;;40.10;;
23995;SDS011;12207;50.076;8.848;2022-07-12T04:39:13;255.45;;;41.63;;
23995;SDS011;12207;50.076;8.848;2022-07-12T04:41:40;298.25;;;54.33;;
23995;SDS011;12207;50.076;8.848;2022-07-12T04:44:07;319.83;;;66.40;;
23995;SDS011;12207;50.076;8.848;2022-07-12T04:46:34;340.52;;;76.25;;
23995;SDS011;12207;50.076;8.848;2022-07-12T04:49:01;365.63;;;91.43;;
23995;SDS011;12207;50.076;8.848;2022-07-12T04:51:27;326.13;;;92.82;;
23995;SDS011;12207;50.076;8.848;2022-07-12T04:53:54;256.90;;;87.95;;
23995;SDS011;12207;50.076;8.848;2022-07-12T04:56:21;270.90;;;91.85;;
23995;SDS011;12207;50.076;8.848;2022-07-12T04:58:48;278.15;;;103.43;;
23995;SDS011;12207;50.076;8.848;2022-07-12T05:01:15;305.77;;;110.20;;
23995;SDS011;12207;50.076;8.848;2022-07-12T05:03:42;353.73;;;123.32;;
23995;SDS011;12207;50.076;8.848;2022-07-12T05:06:09;367.20;;;122.57;;
23995;SDS011;12207;50.076;8.848;2022-07-12T05:08:35;379.30;;;127.97;;
23995;SDS011;12207;50.076;8.848;2022-07-12T05:11:02;385.23;;;126.72;;
23995;SDS011;12207;50.076;8.848;2022-07-12T05:13:29;370.77;;;129.32;;
23995;SDS011;12207;50.076;8.848;2022-07-12T05:15:56;423.48;;;131.05;;
23995;SDS011;12207;50.076;8.848;2022-07-12T05:18:23;321.00;;;133.07;;
23995;SDS011;12207;50.076;8.848;2022-07-12T05:20:50;335.52;;;128.27;;
23995;SDS011;12207;50.076;8.848;2022-07-12T05:23:16;308.70;;;129.20;;
23995;SDS011;12207;50.076;8.848;2022-07-12T05:25:44;355.60;;;139.25;;
23995;SDS011;12207;50.076;8.848;2022-07-12T05:28:11;379.05;;;135.82;;
23995;SDS011;12207;50.076;8.848;2022-07-12T05:30:39;414.02;;;144.05;;
23995;SDS011;12207;50.076;8.848;2022-07-12T05:33:06;424.80;;;154.70;;
23995;SDS011;12207;50.076;8.848;2022-07-12T05:35:32;468.50;;;166.95;;
23995;SDS011;12207;50.076;8.848;2022-07-12T05:37:59;399.52;;;155.27;;
23995;SDS011;12207;50.076;8.848;2022-07-12T05:40:26;422.58;;;161.20;;
23995;SDS011;12207;50.076;8.848;2022-07-12T05:42:53;386.30;;;157.73;;
23995;SDS011;12207;50.076;8.848;2022-07-12T05:45:20;390.73;;;152.88;;
23995;SDS011;12207;50.076;8.848;2022-07-12T05:47:50;360.02;;;141.57;;
23995;SDS011;12207;50.076;8.848;2022-07-12T05:50:17;327.90;;;138.07;;
23995;SDS011;12207;50.076;8.848;2022-07-12T05:52:43;367.67;;;142.63;;
23995;SDS011;12207;50.076;8.848;2022-07-12T05:55:39;367.60;;;144.85;;
23995;SDS011;12207;50.076;8.848;2022-07-12T05:58:06;381.42;;;138.30;;
23995;SDS011;12207;50.076;8.848;2022-07-12T06:00:32;442.35;;;135.05;;
23995;SDS011;12207;50.076;8.848;2022-07-12T06:02:59;411.27;;;135.13;;
23995;SDS011;12207;50.076;8.848;2022-07-12T06:05:26;419.38;;;135.88;;
23995;SDS011;12207;50.076;8.848;2022-07-12T06:07:53;339.38;;;137.25;;
23995;SDS011;12207;50.076;8.848;2022-07-12T06:10:19;364.00;;;139.52;;
23995;SDS011;12207;50.076;8.848;2022-07-12T06:12:46;330.27;;;131.48;;
23995;SDS011;12207;50.076;8.848;2022-07-12T06:15:13;431.73;;;140.57;;
23995;SDS011;12207;50.076;8.848;2022-07-12T06:17:40;368.65;;;133.40;;
23995;SDS011;12207;50.076;8.848;2022-07-12T06:20:07;398.50;;;141.65;;
23995;SDS011;12207;50.076;8.848;2022-07-12T06:22:34;377.40;;;126.43;;
23995;SDS011;12207;50.076;8.848;2022-07-12T06:25:01;373.10;;;115.53;;
23995;SDS011;12207;50.076;8.848;2022-07-12T06:27:27;365.27;;;107.85;;
23995;SDS011;12207;50.076;8.848;2022-07-12T06:29:54;324.75;;;104.50;;
23995;SDS011;12207;50.076;8.848;2022-07-12T06:32:21;327.60;;;103.88;;
23995;SDS011;12207;50.076;8.848;2022-07-12T06:34:48;326.40;;;112.13;;
23995;SDS011;12207;50.076;8.848;2022-07-12T06:37:14;435.23;;;116.95;;
23995;SDS011;12207;50.076;8.848;2022-07-12T06:39:41;326.13;;;110.38;;
23995;SDS011;12207;50.076;8.848;2022-07-12T06:42:09;275.35;;;102.22;;
23995;SDS011;12207;50.076;8.848;2022-07-12T06:44:36;308.63;;;96.10;;
23995;SDS011;12207;50.076;8.848;2022-07-12T06:47:03;381.27;;;104.18;;
23995;SDS011;12207;50.076;8.848;2022-07-12T06:49:30;346.67;;;102.25;;
23995;SDS011;12207;50.076;8.848;2022-07-12T06:51:56;290.50;;;96.00;;
23995;SDS011;12207;50.076;8.848;2022-07-12T06:54:23;262.73;;;87.53;;
23995;SDS011;12207;50.076;8.848;2022-07-12T06:56:50;291.13;;;84.13;;
23995;SDS011;12207;50.076;8.848;2022-07-12T06:59:17;303.60;;;103.10;;
23995;SDS011;12207;50.076;8.848;2022-07-12T07:01:44;299.65;;;94.10;;
23995;SDS011;12207;50.076;8.848;2022-07-12T07:04:11;330.88;;;100.20;;
23995;SDS011;12207;50.076;8.848;2022-07-12T07:06:37;310.35;;;94.07;;
23995;SDS011;12207;50.076;8.848;2022-07-12T07:09:04;351.00;;;98.35;;
23995;SDS011;12207;50.076;8.848;2022-07-12T07:11:33;353.70;;;98.95;;
23995;SDS011;12207;50.076;8.848;2022-07-12T07:14:01;322.77;;;94.38;;
23995;SDS011;12207;50.076;8.848;2022-07-12T07:16:28;353.60;;;93.10;;
23995;SDS011;12207;50.076;8.848;2022-07-12T07:18:55;295.67;;;82.47;;
23995;SDS011;12207;50.076;8.848;2022-07-12T07:21:22;269.95;;;80.15;;
23995;SDS011;12207;50.076;8.848;2022-07-12T07:23:50;279.45;;;86.93;;
23995;SDS011;12207;50.076;8.848;2022-07-12T07:26:18;262.73;;;84.38;;
23995;SDS011;12207;50.076;8.848;2022-07-12T07:28:44;292.67;;;84.05;;
23995;SDS011;12207;50.076;8.848;2022-07-12T07:31:30;332.23;;;88.90;;
23995;SDS011;12207;50.076;8.848;2022-07-12T07:34:01;354.05;;;94.50;;
23995;SDS011;12207;50.076;8.848;2022-07-12T07:36:28;362.35;;;93.05;;
23995;SDS011;12207;50.076;8.848;2022-07-12T07:38:55;315.08;;;91.93;;
23995;SDS011;12207;50.076;8.848;2022-07-12T07:41:22;284.65;;;87.50;;
23995;SDS011;12207;50.076;8.848;2022-07-12T07:43:49;274.45;;;83.13;;
23995;SDS011;12207;50.076;8.848;2022-07-12T07:46:16;278.73;;;88.10;;
23995;SDS011;12207;50.076;8.848;2022-07-12T07:48:43;293.27;;;92.30;;
23995;SDS011;12207;50.076;8.848;2022-07-12T07:51:10;325.02;;;94.82;;
23995;SDS011;12207;50.076;8.848;2022-07-12T07:53:36;402.60;;;115.65;;
23995;SDS011;12207;50.076;8.848;2022-07-12T07:56:03;354.08;;;110.07;;
23995;SDS011;12207;50.076;8.848;2022-07-12T07:58:30;387.55;;;120.38;;
23995;SDS011;12207;50.076;8.848;2022-07-12T08:00:57;358.52;;;118.75;;
23995;SDS011;12207;50.076;8.848;2022-07-12T08:03:24;351.20;;;112.22;;
23995;SDS011;12207;50.076;8.848;2022-07-12T08:05:50;299.55;;;105.47;;
23995;SDS011;12207;50.076;8.848;2022-07-12T08:08:17;320.80;;;97.65;;
23995;SDS011;12207;50.076;8.848;2022-07-12T08:10:44;264.90;;;75.00;;
23995;SDS011;12207;50.076;8.848;2022-07-12T08:13:11;263.10;;;79.43;;
23995;SDS011;12207;50.076;8.848;2022-07-12T08:15:37;353.23;;;84.10;;
23995;SDS011;12207;50.076;8.848;2022-07-12T08:18:04;372.67;;;84.68;;
23995;SDS011;12207;50.076;8.848;2022-07-12T08:20:31;382.02;;;95.82;;
23995;SDS011;12207;50.076;8.848;2022-07-12T08:22:58;343.27;;;82.38;;
23995;SDS011;12207;50.076;8.848;2022-07-12T08:25:25;284.92;;;72.65;;
23995;SDS011;12207;50.076;8.848;2022-07-12T08:27:51;267.60;;;72.13;;
23995;SDS011;12207;50.076;8.848;2022-07-12T08:30:18;285.92;;;60.80;;
23995;SDS011;12207;50.076;8.848;2022-07-12T08:32:45;284.20;;;81.45;;
23995;SDS011;12207;50.076;8.848;2022-07-12T08:35:12;345.90;;;100.60;;
23995;SDS011;12207;50.076;8.848;2022-07-12T08:37:40;358.20;;;99.90;;
23995;SDS011;12207;50.076;8.848;2022-07-12T08:40:08;355.38;;;97.35;;
23995;SDS011;12207;50.076;8.848;2022-07-12T08:42:36;409.35;;;115.95;;
23995;SDS011;12207;50.076;8.848;2022-07-12T08:45:07;349.80;;;107.13;;
23995;SDS011;12207;50.076;8.848;2022-07-12T08:47:35;372.92;;;111.50;;
23995;SDS011;12207;50.076;8.848;2022-07-12T08:50:18;436.33;;;118.78;;
23995;SDS011;12207;50.076;8.848;2022-07-12T08:52:48;355.88;;;106.90;;
23995;SDS011;12207;50.076;8.848;2022-07-12T08:57:54;311.73;;;93.50;;
23995;SDS011;12207;50.076;8.848;2022-07-12T09:00:26;318.63;;;95.47;;
23995;SDS011;12207;50.076;8.848;2022-07-12T09:05:30;321.50;;;100.65;;
23995;SDS011;12207;50.076;8.848;2022-07-12T09:08:08;395.33;;;99.82;;
23995;SDS011;12207;50.076;8.848;2022-07-12T09:10:51;456.05;;;117.70;;
23995;SDS011;12207;50.076;8.848;2022-07-12T09:13:20;366.15;;;112.30;;
23995;SDS011;12207;50.076;8.848;2022-07-12T09:16:17;371.42;;;108.68;;
23995;SDS011;12207;50.076;8.848;2022-07-12T09:18:45;351.10;;;108.22;;
23995;SDS011;12207;50.076;8.848;2022-07-12T09:21:33;371.90;;;115.75;;
23995;SDS011;12207;50.076;8.848;2022-07-12T09:23:59;443.33;;;120.60;;
23995;SDS011;12207;50.076;8.848;2022-07-12T09:26:30;351.50;;;112.20;;
23995;SDS011;12207;50.076;8.848;2022-07-12T09:29:07;379.10;;;113.40;;
23995;SDS011;12207;50.076;8.848;2022-07-12T09:31:39;363.95;;;105.57;;
23995;SDS011;12207;50.076;8.848;2022-07-12T09:34:29;388.98;;;107.50;;
23995;SDS011;12207;50.076;8.848;2022-07-12T09:37:15;449.88;;;117.32;;
23995;SDS011;12207;50.076;8.848;2022-07-12T09:39:42;355.42;;;107.10;;
23995;SDS011;12207;50.076;8.848;2022-07-12T09:42:10;378.08;;;110.53;;
23995;SDS011;12207;50.076;8.848;2022-07-12T09:44:38;371.02;;;112.38;;
23995;SDS011;12207;50.076;8.848;2022-07-12T09:47:09;449.25;;;113.15;;
23995;SDS011;12207;50.076;8.848;2022-07-12T09:49:44;341.50;;;105.40;;
23995;SDS011;12207;50.076;8.848;2022-07-12T09:52:21;346.30;;;97.03;;
23995;SDS011;12207;50.076;8.848;2022-07-12T09:54:50;280.65;;;93.85;;
23995;SDS011;12207;50.076;8.848;2022-07-12T09:57:25;420.70;;;105.18;;
23995;SDS011;12207;50.076;8.848;2022-07-12T09:59:57;308.50;;;98.80;;
23995;SDS011;12207;50.076;8.848;2022-07-12T10:02:24;343.42;;;93.70;;
23995;SDS011;12207;50.076;8.848;2022-07-12T10:04:52;274.58;;;79.78;;
23995;SDS011;12207;50.076;8.848;2022-07-12T10:07:20;427.35;;;92.25;;
23995;SDS011;12207;50.076;8.848;2022-07-12T10:09:48;308.17;;;77.10;;
23995;SDS011;12207;50.076;8.848;2022-07-12T10:12:20;312.30;;;80.82;;
23995;SDS011;12207;50.076;8.848;2022-07-12T10:14:52;243.30;;;81.15;;
23995;SDS011;12207;50.076;8.848;2022-07-12T10:17:26;360.40;;;87.82;;
23995;SDS011;12207;50.076;8.848;2022-07-12T10:22:42;296.63;;;90.65;;
23995;SDS011;12207;50.076;8.848;2022-07-12T10:27:59;356.88;;;100.63;;
23995;SDS011;12207;50.076;8.848;2022-07-12T10:30:28;430.42;;;113.50;;
23995;SDS011;12207;50.076;8.848;2022-07-12T10:32:56;269.40;;;99.78;;
23995;SDS011;12207;50.076;8.848;2022-07-12T10:35:25;344.13;;;108.85;;
23995;SDS011;12207;50.076;8.848;2022-07-12T10:40:41;340.02;;;102.72;;
23995;SDS011;12207;50.076;8.848;2022-07-12T10:53:30;332.30;;;108.22;;
23995;SDS011;12207;50.076;8.848;2022-07-12T10:56:10;358.52;;;109.80;;
23995;SDS011;12207;50.076;8.848;2022-07-12T10:58:51;311.08;;;100.63;;
23995;SDS011;12207;50.076;8.848;2022-07-12T11:01:21;266.70;;;90.43;;
23995;SDS011;12207;50.076;8.848;2022-07-12T11:04:09;243.27;;;79.85;;
23995;SDS011;12207;50.076;8.848;2022-07-12T11:06:37;359.20;;;95.68;;
23995;SDS011;12207;50.076;8.848;2022-07-12T11:09:09;356.15;;;95.00;;
23995;SDS011;12207;50.076;8.848;2022-07-12T11:14:06;390.90;;;106.65;;
23995;SDS011;12207;50.076;8.848;2022-07-12T11:16:33;406.10;;;111.65;;
23995;SDS011;12207;50.076;8.848;2022-07-12T11:19:07;370.40;;;112.80;;
23995;SDS011;12207;50.076;8.848;2022-07-12T11:21:34;379.45;;;109.18;;
23995;SDS011;12207;50.076;8.848;2022-07-12T11:24:01;361.33;;;106.75;;
23995;SDS011;12207;50.076;8.848;2022-07-12T11:26:40;312.27;;;105.53;;
23995;SDS011;12207;50.076;8.848;2022-07-12T11:29:07;335.98;;;103.10;;
23995;SDS011;12207;50.076;8.848;2022-07-12T11:31:35;407.60;;;104.68;;
23995;SDS011;12207;50.076;8.848;2022-07-12T11:34:01;355.05;;;102.57;;
23995;SDS011;12207;50.076;8.848;2022-07-12T11:36:28;343.67;;;97.28;;
23995;SDS011;12207;50.076;8.848;2022-07-12T11:38:56;324.60;;;94.05;;
23995;SDS011;12207;50.076;8.848;2022-07-12T11:41:22;333.23;;;98.20;;
23995;SDS011;12207;50.076;8.848;2022-07-12T11:43:50;312.42;;;99.00;;
23995;SDS011;12207;50.076;8.848;2022-07-12T11:46:16;373.38;;;110.38;;
23995;SDS011;12207;50.076;8.848;2022-07-12T11:48:43;339.25;;;105.30;;
23995;SDS011;12207;50.076;8.848;2022-07-12T11:51:11;350.25;;;108.40;;
23995;SDS011;12207;50.076;8.848;2022-07-12T11:53:39;350.25;;;109.95;;
23995;SDS011;12207;50.076;8.848;2022-07-12T11:56:07;355.48;;;116.75;;
23995;SDS011;12207;50.076;8.848;2022-07-12T11:58:36;363.45;;;122.65;;
23995;SDS011;12207;50.076;8.848;2022-07-12T12:01:09;396.40;;;123.05;;
23995;SDS011;12207;50.076;8.848;2022-07-12T12:03:44;403.77;;;121.28;;
23995;SDS011;12207;50.076;8.848;2022-07-12T12:06:11;373.33;;;122.18;;
23995;SDS011;12207;50.076;8.848;2022-07-12T12:08:38;379.73;;;120.82;;
23995;SDS011;12207;50.076;8.848;2022-07-12T12:11:05;384.58;;;118.28;;
23995;SDS011;12207;50.076;8.848;2022-07-12T12:13:32;376.58;;;118.15;;
23995;SDS011;12207;50.076;8.848;2022-07-12T12:16:02;384.38;;;119.93;;
23995;SDS011;12207;50.076;8.848;2022-07-12T12:21:04;377.90;;;116.90;;
23995;SDS011;12207;50.076;8.848;2022-07-12T12:23:32;355.83;;;107.20;;
23995;SDS011;12207;50.076;8.848;2022-07-12T12:26:10;443.48;;;117.63;;
23995;SDS011;12207;50.076;8.848;2022-07-12T12:28:41;328.58;;;114.22;;
23995;SDS011;12207;50.076;8.848;2022-07-12T12:31:10;358.25;;;123.38;;
23995;SDS011;12207;50.076;8.848;2022-07-12T12:33:39;395.83;;;128.50;;
23995;SDS011;12207;50.076;8.848;2022-07-12T12:36:11;371.38;;;126.68;;
23995;SDS011;12207;50.076;8.848;2022-07-12T12:38:38;392.40;;;127.90;;
23995;SDS011;12207;50.076;8.848;2022-07-12T12:41:05;367.25;;;131.70;;
23995;SDS011;12207;50.076;8.848;2022-07-12T12:43:32;407.20;;;136.48;;
23995;SDS011;12207;50.076;8.848;2022-07-12T12:45:59;416.20;;;136.93;;
23995;SDS011;12207;50.076;8.848;2022-07-12T12:48:27;369.77;;;135.65;;
23995;SDS011;12207;50.076;8.848;2022-07-12T12:51:08;345.33;;;133.60;;
23995;SDS011;12207;50.076;8.848;2022-07-12T12:53:39;407.08;;;136.75;;
23995;SDS011;12207;50.076;8.848;2022-07-12T12:56:08;380.85;;;128.63;;
23995;SDS011;12207;50.076;8.848;2022-07-12T12:58:37;393.27;;;132.02;;
23995;SDS011;12207;50.076;8.848;2022-07-12T13:01:07;409.77;;;140.20;;
23995;SDS011;12207;50.076;8.848;2022-07-12T13:03:34;382.48;;;134.75;;
23995;SDS011;12207;50.076;8.848;2022-07-12T13:06:01;357.15;;;137.15;;
23995;SDS011;12207;50.076;8.848;2022-07-12T13:08:30;341.13;;;131.48;;
23995;SDS011;12207;50.076;8.848;2022-07-12T13:10:58;325.23;;;130.60;;
23995;SDS011;12207;50.076;8.848;2022-07-12T13:13:45;252.50;;;114.38;;
23995;SDS011;12207;50.076;8.848;2022-07-12T13:16:11;232.93;;;113.15;;
23995;SDS011;12207;50.076;8.848;2022-07-12T13:18:38;264.05;;;116.53;;
23995;SDS011;12207;50.076;8.848;2022-07-12T13:21:05;253.50;;;114.05;;
23995;SDS011;12207;50.076;8.848;2022-07-12T13:23:31;230.50;;;113.00;;
23995;SDS011;12207;50.076;8.848;2022-07-12T13:25:58;235.63;;;116.07;;
23995;SDS011;12207;50.076;8.848;2022-07-12T13:28:25;234.15;;;127.82;;
23995;SDS011;12207;50.076;8.848;2022-07-12T13:30:52;261.08;;;127.05;;
23995;SDS011;12207;50.076;8.848;2022-07-12T13:33:20;242.50;;;130.40;;
23995;SDS011;12207;50.076;8.848;2022-07-12T13:35:47;269.88;;;137.23;;
23995;SDS011;12207;50.076;8.848;2022-07-12T13:38:14;221.40;;;130.93;;
23995;SDS011;12207;50.076;8.848;2022-07-12T13:40:41;289.88;;;131.10;;
23995;SDS011;12207;50.076;8.848;2022-07-12T13:43:08;231.95;;;130.43;;
23995;SDS011;12207;50.076;8.848;2022-07-12T13:45:35;240.85;;;134.20;;
23995;SDS011;12207;50.076;8.848;2022-07-12T13:48:02;271.55;;;133.35;;
23995;SDS011;12207;50.076;8.848;2022-07-12T13:50:29;269.98;;;126.38;;
23995;SDS011;12207;50.076;8.848;2022-07-12T13:52:55;219.77;;;113.88;;
23995;SDS011;12207;50.076;8.848;2022-07-12T13:55:24;343.20;;;124.88;;
23995;SDS011;12207;50.076;8.848;2022-07-12T13:57:51;284.92;;;122.45;;
23995;SDS011;12207;50.076;8.848;2022-07-12T14:00:18;265.80;;;119.20;;
23995;SDS011;12207;50.076;8.848;2022-07-12T14:02:47;269.05;;;120.50;;
23995;SDS011;12207;50.076;8.848;2022-07-12T14:05:15;285.45;;;128.95;;
23995;SDS011;12207;50.076;8.848;2022-07-12T14:07:42;269.95;;;124.43;;
23995;SDS011;12207;50.076;8.848;2022-07-12T14:10:13;246.85;;;122.97;;
23995;SDS011;12207;50.076;8.848;2022-07-12T14:12:40;272.58;;;124.85;;
23995;SDS011;12207;50.076;8.848;2022-07-12T14:15:08;262.52;;;132.02;;
23995;SDS011;12207;50.076;8.848;2022-07-12T14:17:39;280.85;;;131.50;;
23995;SDS011;12207;50.076;8.848;2022-07-12T14:20:08;271.50;;;130.57;;
23995;SDS011;12207;50.076;8.848;2022-07-12T14:22:37;269.70;;;128.70;;
23995;SDS011;12207;50.076;8.848;2022-07-12T14:25:05;276.42;;;134.43;;
23995;SDS011;12207;50.076;8.848;2022-07-12T14:27:33;293.75;;;134.80;;
23995;SDS011;12207;50.076;8.848;2022-07-12T14:30:01;251.27;;;133.05;;
23995;SDS011;12207;50.076;8.848;2022-07-12T14:32:33;321.08;;;150.43;;
23995;SDS011;12207;50.076;8.848;2022-07-12T14:35:01;271.98;;;124.43;;
23995;SDS011;12207;50.076;8.848;2022-07-12T14:37:28;285.98;;;152.50;;
23995;SDS011;12207;50.076;8.848;2022-07-12T14:39:55;288.08;;;133.75;;
23995;SDS011;12207;50.076;8.848;2022-07-12T14:42:21;274.55;;;131.07;;